.
Local / Fort Wayne - NE Ind.

U N D E R   C O N S T R U C T I O N

Local Weather
Fort Wayne – NE Indiana

Northern Indiana (IWX) Radar

Latest IWX NEXRAD
Base Reflectivity



Latest IWX NEXRAD
Base Velocity

Indiana-Ohio Visible Satellite

For infrared and water vapor imagery, see Great Lakes - Midwest.

Current Conditions

Recent report from the Fort Wayne International Airport

Recent report from the Fort Wayne International Airport

Sep 25, 2022 - 01:54 PM EDT / 2022.09.25 1754 UTC


The skies are mostly cloudy. The temperature is 64.0 F (17.8 C) and the dew point is 55.0 F (12.8 C), giving a relative humidity of 72%. The barometric pressure is 29.74 in. Hg (1007 hPa) and rising. The wind is from the W (280 degrees) at 12 MPH (10 KT) gusting to 21 MPH (18 KT), and the visibility is 10 mile(s).

KFWA 251754Z 28010G18KT 10SM FEW017 BKN035 BKN049 18/13 A2974 RMK AO2 SLP066 60001 T01780128 10178 20139 50004

Recent report from the DeKalb County Airport

Sep 25, 2022 - 01:55 PM EDT / 2022.09.25 1755 UTC


The skies are mostly cloudy. The temperature is 64 F (18 C) and the dew point is 55 F (13 C), giving a relative humidity of 72%. The barometric pressure is 29.72 in. Hg (1006 hPa) and rising. The wind is from the WNW (290 degrees) at 16 MPH (14 KT) gusting to 23 MPH (20 KT), and the visibility is 10 mile(s).

KGWB 251755Z AUTO 29014G20KT 10SM SCT021 BKN029 BKN045 18/13 A2972 RMK AO2

Local Weather — Contents

Local Weather — Links

CoCoRaHS
IN-AL-99
A2 Web Hosting
Creative Commons License
GoDaddy
search engine by freefind advanced

loaded 2022-09-25 14:11:35 • last modified 2017-02-11 13:27:36
Privacy PolicyDisclaimer
• wx.awcolley.com is powered by PmWiki v.2002016 •
• all content (unless otherwise noted) © 2022 A W Colley